sensor_id;sensor_type;location;lat;lon;timestamp;noise_LAeq;noise_LA_min;noise_LA_max;noise_LA01;noise_LA95
52872;Laerm;40124;52.198;9.902;2023-01-19T00:01:44;58.14;37.70;77.16;;
52872;Laerm;40124;52.198;9.902;2023-01-19T00:04:36;41.20;38.21;46.38;;
52872;Laerm;40124;52.198;9.902;2023-01-19T00:10:06;41.51;38.37;44.31;;
52872;Laerm;40124;52.198;9.902;2023-01-19T00:12:32;42.64;40.08;45.57;;
52872;Laerm;40124;52.198;9.902;2023-01-19T00:15:15;43.70;40.33;52.71;;
52872;Laerm;40124;52.198;9.902;2023-01-19T00:17:41;41.22;36.69;43.90;;
52872;Laerm;40124;52.198;9.902;2023-01-19T00:20:18;40.72;36.91;43.09;;
52872;Laerm;40124;52.198;9.902;2023-01-19T00:22:46;41.94;37.88;44.80;;
52872;Laerm;40124;52.198;9.902;2023-01-19T00:25:32;41.48;38.05;44.39;;
52872;Laerm;40124;52.198;9.902;2023-01-19T00:34:25;42.74;39.92;45.60;;
52872;Laerm;40124;52.198;9.902;2023-01-19T00:45:54;41.08;38.05;44.11;;
52872;Laerm;40124;52.198;9.902;2023-01-19T00:48:20;40.93;37.52;43.63;;
52872;Laerm;40124;52.198;9.902;2023-01-19T00:53:22;43.27;39.46;55.94;;
52872;Laerm;40124;52.198;9.902;2023-01-19T00:55:47;41.99;38.52;44.94;;
52872;Laerm;40124;52.198;9.902;2023-01-19T00:58:12;59.78;37.88;79.80;;
52872;Laerm;40124;52.198;9.902;2023-01-19T01:00:38;41.32;37.70;46.84;;
52872;Laerm;40124;52.198;9.902;2023-01-19T01:03:03;41.08;37.12;44.90;;
52872;Laerm;40124;52.198;9.902;2023-01-19T01:05:29;41.51;38.05;44.31;;
52872;Laerm;40124;52.198;9.902;2023-01-19T01:07:54;42.41;39.21;45.89;;
52872;Laerm;40124;52.198;9.902;2023-01-19T01:10:20;47.69;41.14;66.81;;
52872;Laerm;40124;52.198;9.902;2023-01-19T01:16:09;53.00;39.21;71.85;;
52872;Laerm;40124;52.198;9.902;2023-01-19T01:19:10;43.05;39.34;46.80;;
52872;Laerm;40124;52.198;9.902;2023-01-19T01:21:50;59.89;40.53;80.66;;
52872;Laerm;40124;52.198;9.902;2023-01-19T01:24:15;43.21;39.81;53.13;;
52872;Laerm;40124;52.198;9.902;2023-01-19T01:26:42;64.56;40.23;83.26;;
52872;Laerm;40124;52.198;9.902;2023-01-19T01:29:08;43.95;41.38;49.57;;
52872;Laerm;40124;52.198;9.902;2023-01-19T01:31:33;43.01;40.23;47.61;;
52872;Laerm;40124;52.198;9.902;2023-01-19T01:33:59;44.56;39.70;71.05;;
52872;Laerm;40124;52.198;9.902;2023-01-19T01:36:24;42.50;39.81;44.73;;
52872;Laerm;40124;52.198;9.902;2023-01-19T01:41:53;43.52;40.89;56.69;;
52872;Laerm;40124;52.198;9.902;2023-01-19T01:47:02;43.13;39.92;46.84;;
52872;Laerm;40124;52.198;9.902;2023-01-19T01:49:28;44.41;41.22;58.16;;
52872;Laerm;40124;52.198;9.902;2023-01-19T01:54:59;43.17;39.46;49.50;;
52872;Laerm;40124;52.198;9.902;2023-01-19T02:03:42;42.96;39.70;58.85;;
52872;Laerm;40124;52.198;9.902;2023-01-19T02:06:27;59.03;40.80;80.62;;
52872;Laerm;40124;52.198;9.902;2023-01-19T02:08:53;58.88;39.92;80.36;;
52872;Laerm;40124;52.198;9.902;2023-01-19T02:17:48;65.24;39.34;86.30;;
52872;Laerm;40124;52.198;9.902;2023-01-19T02:20:22;43.07;39.58;57.28;;
52872;Laerm;40124;52.198;9.902;2023-01-19T02:23:00;62.13;40.33;82.60;;
52872;Laerm;40124;52.198;9.902;2023-01-19T02:31:49;63.26;41.38;81.67;;
52872;Laerm;40124;52.198;9.902;2023-01-19T02:37:17;42.92;39.81;57.59;;
52872;Laerm;40124;52.198;9.902;2023-01-19T02:43:28;41.50;37.88;45.48;;
52872;Laerm;40124;52.198;9.902;2023-01-19T03:03:44;59.63;37.12;78.94;;
52872;Laerm;40124;52.198;9.902;2023-01-19T03:06:31;42.76;40.13;46.50;;
52872;Laerm;40124;52.198;9.902;2023-01-19T03:15:31;40.84;36.69;44.39;;
52872;Laerm;40124;52.198;9.902;2023-01-19T03:24:07;56.46;40.03;74.25;;
52872;Laerm;40124;52.198;9.902;2023-01-19T03:26:37;42.40;39.70;44.03;;
52872;Laerm;40124;52.198;9.902;2023-01-19T03:29:03;42.04;38.21;43.90;;
52872;Laerm;40124;52.198;9.902;2023-01-19T03:31:31;66.88;38.21;87.60;;
52872;Laerm;40124;52.198;9.902;2023-01-19T03:33:58;56.64;38.37;76.91;;
52872;Laerm;40124;52.198;9.902;2023-01-19T03:36:29;64.25;37.70;83.07;;
52872;Laerm;40124;52.198;9.902;2023-01-19T03:38:56;40.74;36.20;49.50;;
52872;Laerm;40124;52.198;9.902;2023-01-19T03:41:22;62.78;37.12;80.10;;
52872;Laerm;40124;52.198;9.902;2023-01-19T03:43:49;64.30;38.21;84.38;;
52872;Laerm;40124;52.198;9.902;2023-01-19T03:46:16;63.59;40.23;79.00;;
52872;Laerm;40124;52.198;9.902;2023-01-19T03:48:42;64.83;39.21;85.37;;
52872;Laerm;40124;52.198;9.902;2023-01-19T03:51:08;66.39;39.34;84.57;;
52872;Laerm;40124;52.198;9.902;2023-01-19T03:53:35;58.67;38.05;79.19;;
52872;Laerm;40124;52.198;9.902;2023-01-19T03:58:45;64.12;39.81;79.70;;
52872;Laerm;40124;52.198;9.902;2023-01-19T04:01:11;64.29;39.58;83.19;;
52872;Laerm;40124;52.198;9.902;2023-01-19T04:06:51;63.59;40.63;80.00;;
52872;Laerm;40124;52.198;9.902;2023-01-19T04:09:16;66.88;40.63;82.69;;
52872;Laerm;40124;52.198;9.902;2023-01-19T04:11:42;66.80;41.89;81.15;;
52872;Laerm;40124;52.198;9.902;2023-01-19T04:14:07;63.47;41.14;81.04;;
52872;Laerm;40124;52.198;9.902;2023-01-19T04:19:39;66.15;41.89;81.31;;
52872;Laerm;40124;52.198;9.902;2023-01-19T04:22:04;70.49;43.33;85.61;;
52872;Laerm;40124;52.198;9.902;2023-01-19T04:24:30;70.19;45.60;85.14;;
52872;Laerm;40124;52.198;9.902;2023-01-19T04:26:55;68.37;42.22;80.40;;
52872;Laerm;40124;52.198;9.902;2023-01-19T04:29:21;67.71;41.61;80.30;;
52872;Laerm;40124;52.198;9.902;2023-01-19T04:37:48;68.86;43.54;81.80;;
52872;Laerm;40124;52.198;9.902;2023-01-19T04:49:33;71.50;42.82;85.78;;
52872;Laerm;40124;52.198;9.902;2023-01-19T04:52:02;72.13;44.35;85.00;;
52872;Laerm;40124;52.198;9.902;2023-01-19T04:54:27;70.75;42.47;87.23;;
52872;Laerm;40124;52.198;9.902;2023-01-19T04:56:52;67.18;42.59;84.03;;
52872;Laerm;40124;52.198;9.902;2023-01-19T04:59:18;65.89;41.22;81.55;;
52872;Laerm;40124;52.198;9.902;2023-01-19T05:01:51;70.12;41.06;83.98;;
52872;Laerm;40124;52.198;9.902;2023-01-19T05:04:17;69.69;41.41;85.16;;
52872;Laerm;40124;52.198;9.902;2023-01-19T05:06:42;68.87;45.77;84.07;;
52872;Laerm;40124;52.198;9.902;2023-01-19T05:09:07;65.85;41.61;80.38;;
52872;Laerm;40124;52.198;9.902;2023-01-19T05:11:33;69.78;50.28;84.84;;
52872;Laerm;40124;52.198;9.902;2023-01-19T05:13:59;66.21;42.88;80.86;;
52872;Laerm;40124;52.198;9.902;2023-01-19T05:16:24;69.43;43.86;83.06;;
52872;Laerm;40124;52.198;9.902;2023-01-19T05:18:58;69.21;42.98;81.46;;
52872;Laerm;40124;52.198;9.902;2023-01-19T05:21:24;68.21;44.80;80.56;;
52872;Laerm;40124;52.198;9.902;2023-01-19T05:24:00;69.77;46.82;85.24;;
52872;Laerm;40124;52.198;9.902;2023-01-19T05:26:35;69.16;44.11;81.72;;
52872;Laerm;40124;52.198;9.902;2023-01-19T05:29:01;69.28;47.54;82.58;;
52872;Laerm;40124;52.198;9.902;2023-01-19T05:31:26;69.64;47.08;82.56;;
52872;Laerm;40124;52.198;9.902;2023-01-19T05:39:48;69.83;47.57;81.04;;
52872;Laerm;40124;52.198;9.902;2023-01-19T05:42:15;71.22;48.10;84.08;;
52872;Laerm;40124;52.198;9.902;2023-01-19T05:44:41;71.45;45.17;82.06;;
52872;Laerm;40124;52.198;9.902;2023-01-19T05:47:06;71.13;44.73;82.84;;
52872;Laerm;40124;52.198;9.902;2023-01-19T05:49:34;72.93;43.19;88.05;;
52872;Laerm;40124;52.198;9.902;2023-01-19T05:52:00;70.28;44.90;82.23;;
52872;Laerm;40124;52.198;9.902;2023-01-19T05:54:48;72.37;48.67;82.76;;
52872;Laerm;40124;52.198;9.902;2023-01-19T06:00:15;73.90;46.87;87.82;;
52872;Laerm;40124;52.198;9.902;2023-01-19T06:02:50;69.29;45.54;80.24;;
52872;Laerm;40124;52.198;9.902;2023-01-19T06:08:07;71.18;50.27;81.98;;
52872;Laerm;40124;52.198;9.902;2023-01-19T06:10:32;71.63;48.94;83.46;;
52872;Laerm;40124;52.198;9.902;2023-01-19T06:12:58;69.86;44.54;85.95;;
52872;Laerm;40124;52.198;9.902;2023-01-19T06:16:16;72.32;45.01;84.35;;
52872;Laerm;40124;52.198;9.902;2023-01-19T06:18:19;72.87;53.16;83.19;;
52872;Laerm;40124;52.198;9.902;2023-01-19T06:20:44;72.52;53.72;84.63;;
52872;Laerm;40124;52.198;9.902;2023-01-19T06:23:09;72.37;55.89;81.60;;
52872;Laerm;40124;52.198;9.902;2023-01-19T06:25:44;73.27;53.58;86.79;;
52872;Laerm;40124;52.198;9.902;2023-01-19T06:28:09;72.52;51.89;80.55;;
52872;Laerm;40124;52.198;9.902;2023-01-19T06:30:34;73.18;56.25;83.65;;
52872;Laerm;40124;52.198;9.902;2023-01-19T06:33:00;72.90;56.07;83.73;;
52872;Laerm;40124;52.198;9.902;2023-01-19T06:35:33;70.54;49.55;81.59;;
52872;Laerm;40124;52.198;9.902;2023-01-19T06:37:59;70.65;49.73;83.45;;
52872;Laerm;40124;52.198;9.902;2023-01-19T06:40:25;71.43;50.80;82.94;;
52872;Laerm;40124;52.198;9.902;2023-01-19T06:42:50;71.62;50.84;83.67;;
52872;Laerm;40124;52.198;9.902;2023-01-19T06:45:18;71.23;52.46;82.56;;
52872;Laerm;40124;52.198;9.902;2023-01-19T06:47:46;72.55;49.92;87.51;;
52872;Laerm;40124;52.198;9.902;2023-01-19T06:50:11;72.78;46.82;88.68;;
52872;Laerm;40124;52.198;9.902;2023-01-19T07:19:29;72.65;47.40;89.61;;
52872;Laerm;40124;52.198;9.902;2023-01-19T07:21:55;72.22;46.71;89.02;;
52872;Laerm;40124;52.198;9.902;2023-01-19T07:24:21;70.42;43.04;83.75;;
52872;Laerm;40124;52.198;9.902;2023-01-19T07:26:47;68.83;42.98;84.34;;
52872;Laerm;40124;52.198;9.902;2023-01-19T07:29:12;69.33;47.52;80.25;;
52872;Laerm;40124;52.198;9.902;2023-01-19T07:31:41;73.62;52.26;87.98;;
52872;Laerm;40124;52.198;9.902;2023-01-19T07:34:06;69.50;45.42;83.34;;
52872;Laerm;40124;52.198;9.902;2023-01-19T07:36:32;71.81;49.36;86.50;;
52872;Laerm;40124;52.198;9.902;2023-01-19T07:42:15;69.49;42.29;83.62;;
52872;Laerm;40124;52.198;9.902;2023-01-19T07:44:40;68.08;44.15;85.29;;
52872;Laerm;40124;52.198;9.902;2023-01-19T07:49:49;70.97;46.52;87.27;;
52872;Laerm;40124;52.198;9.902;2023-01-19T07:55:23;67.43;43.54;81.58;;
52872;Laerm;40124;52.198;9.902;2023-01-19T08:00:25;69.67;43.94;85.67;;
52872;Laerm;40124;52.198;9.902;2023-01-19T08:02:57;69.99;49.74;86.18;;
52872;Laerm;40124;52.198;9.902;2023-01-19T08:05:32;65.61;42.93;80.68;;
52872;Laerm;40124;52.198;9.902;2023-01-19T08:07:59;69.75;42.98;86.20;;
52872;Laerm;40124;52.198;9.902;2023-01-19T08:10:25;70.66;46.55;86.11;;
52872;Laerm;40124;52.198;9.902;2023-01-19T08:12:54;69.55;50.08;86.65;;
52872;Laerm;40124;52.198;9.902;2023-01-19T08:18:51;69.37;46.71;83.90;;
52872;Laerm;40124;52.198;9.902;2023-01-19T08:24:23;66.75;46.45;79.77;;
52872;Laerm;40124;52.198;9.902;2023-01-19T08:26:56;70.11;44.39;85.81;;
52872;Laerm;40124;52.198;9.902;2023-01-19T08:29:22;67.06;43.68;86.10;;
52872;Laerm;40124;52.198;9.902;2023-01-19T08:31:48;67.09;42.82;80.48;;
52872;Laerm;40124;52.198;9.902;2023-01-19T08:34:13;72.81;45.57;86.38;;
52872;Laerm;40124;52.198;9.902;2023-01-19T08:36:38;70.73;47.28;86.26;;
52872;Laerm;40124;52.198;9.902;2023-01-19T08:39:10;70.34;44.73;87.24;;
52872;Laerm;40124;52.198;9.902;2023-01-19T08:41:36;69.92;45.83;84.22;;
52872;Laerm;40124;52.198;9.902;2023-01-19T08:44:04;69.27;47.36;80.12;;
52872;Laerm;40124;52.198;9.902;2023-01-19T08:46:49;72.64;49.12;89.86;;
52872;Laerm;40124;52.198;9.902;2023-01-19T08:49:14;69.32;45.45;80.86;;
52872;Laerm;40124;52.198;9.902;2023-01-19T08:51:40;74.60;50.74;92.25;;
52872;Laerm;40124;52.198;9.902;2023-01-19T08:54:05;71.54;45.45;86.49;;
52872;Laerm;40124;52.198;9.902;2023-01-19T08:56:30;68.80;46.25;81.99;;
52872;Laerm;40124;52.198;9.902;2023-01-19T08:59:41;71.71;50.90;86.10;;
52872;Laerm;40124;52.198;9.902;2023-01-19T09:02:00;69.10;45.83;83.19;;
52872;Laerm;40124;52.198;9.902;2023-01-19T09:04:31;69.16;47.34;84.80;;
52872;Laerm;40124;52.198;9.902;2023-01-19T09:07:05;69.42;43.44;81.78;;
52872;Laerm;40124;52.198;9.902;2023-01-19T09:12:13;69.87;49.12;86.32;;
52872;Laerm;40124;52.198;9.902;2023-01-19T09:14:42;68.26;45.23;81.31;;
52872;Laerm;40124;52.198;9.902;2023-01-19T09:17:08;67.70;46.25;80.80;;
52872;Laerm;40124;52.198;9.902;2023-01-19T09:19:43;73.65;49.19;86.93;;
52872;Laerm;40124;52.198;9.902;2023-01-19T09:22:09;66.59;44.58;79.70;;
52872;Laerm;40124;52.198;9.902;2023-01-19T09:24:44;65.13;43.44;79.67;;
52872;Laerm;40124;52.198;9.902;2023-01-19T09:27:12;69.18;45.04;85.52;;
52872;Laerm;40124;52.198;9.902;2023-01-19T09:29:45;66.29;44.80;80.04;;
52872;Laerm;40124;52.198;9.902;2023-01-19T09:32:26;70.89;45.30;83.57;;
52872;Laerm;40124;52.198;9.902;2023-01-19T09:34:51;68.73;44.47;80.90;;
52872;Laerm;40124;52.198;9.902;2023-01-19T09:37:19;71.95;46.10;88.23;;
52872;Laerm;40124;52.198;9.902;2023-01-19T09:39:44;70.14;43.77;84.26;;
52872;Laerm;40124;52.198;9.902;2023-01-19T09:42:22;68.20;44.43;85.20;;
52872;Laerm;40124;52.198;9.902;2023-01-19T09:44:51;70.22;44.31;83.60;;
52872;Laerm;40124;52.198;9.902;2023-01-19T09:47:19;67.31;43.37;81.51;;
52872;Laerm;40124;52.198;9.902;2023-01-19T09:49:46;70.24;47.50;83.23;;
52872;Laerm;40124;52.198;9.902;2023-01-19T09:52:13;67.14;42.65;80.64;;
52872;Laerm;40124;52.198;9.902;2023-01-19T09:54:45;66.53;44.62;80.21;;
52872;Laerm;40124;52.198;9.902;2023-01-19T09:57:13;69.92;44.80;95.15;;
52872;Laerm;40124;52.198;9.902;2023-01-19T09:59:39;69.18;46.02;84.36;;
52872;Laerm;40124;52.198;9.902;2023-01-19T10:11:03;65.93;42.47;80.61;;
52872;Laerm;40124;52.198;9.902;2023-01-19T10:13:48;71.73;46.35;89.96;;
52872;Laerm;40124;52.198;9.902;2023-01-19T10:22:39;70.31;46.66;85.11;;
52872;Laerm;40124;52.198;9.902;2023-01-19T10:25:14;68.83;43.54;86.35;;
52872;Laerm;40124;52.198;9.902;2023-01-19T10:27:50;66.02;41.30;78.85;;
52872;Laerm;40124;52.198;9.902;2023-01-19T10:33:18;70.55;45.04;86.46;;
52872;Laerm;40124;52.198;9.902;2023-01-19T10:35:44;69.32;46.35;79.09;;
52872;Laerm;40124;52.198;9.902;2023-01-19T10:38:12;70.89;49.18;86.17;;
52872;Laerm;40124;52.198;9.902;2023-01-19T10:40:49;69.42;46.06;85.59;;
52872;Laerm;40124;52.198;9.902;2023-01-19T10:46:03;68.42;46.33;84.00;;
52872;Laerm;40124;52.198;9.902;2023-01-19T10:48:35;69.80;45.23;87.65;;
52872;Laerm;40124;52.198;9.902;2023-01-19T10:51:05;71.77;51.43;85.22;;
52872;Laerm;40124;52.198;9.902;2023-01-19T10:53:31;69.46;49.03;78.97;;
52872;Laerm;40124;52.198;9.902;2023-01-19T11:02:01;72.69;43.58;85.25;;
52872;Laerm;40124;52.198;9.902;2023-01-19T11:04:50;73.21;49.47;90.21;;
52872;Laerm;40124;52.198;9.902;2023-01-19T11:10:21;68.35;44.73;82.43;;
52872;Laerm;40124;52.198;9.902;2023-01-19T11:16:03;69.41;44.94;84.36;;
52872;Laerm;40124;52.198;9.902;2023-01-19T11:18:30;70.26;42.16;87.46;;
52872;Laerm;40124;52.198;9.902;2023-01-19T11:27:00;67.91;44.51;82.27;;
52872;Laerm;40124;52.198;9.902;2023-01-19T11:29:01;69.08;44.27;81.01;;
52872;Laerm;40124;52.198;9.902;2023-01-19T11:34:01;70.32;44.87;85.94;;
52872;Laerm;40124;52.198;9.902;2023-01-19T11:39:31;72.34;46.40;86.25;;
52872;Laerm;40124;52.198;9.902;2023-01-19T11:41:59;72.74;49.51;87.92;;
52872;Laerm;40124;52.198;9.902;2023-01-19T11:53:25;72.77;44.97;87.13;;
52872;Laerm;40124;52.198;9.902;2023-01-19T11:56:03;68.41;44.15;80.26;;
52872;Laerm;40124;52.198;9.902;2023-01-19T11:58:30;69.92;44.19;84.02;;
52872;Laerm;40124;52.198;9.902;2023-01-19T12:06:18;68.81;46.45;79.45;;
52872;Laerm;40124;52.198;9.902;2023-01-19T12:08:45;69.65;42.22;83.79;;
52872;Laerm;40124;52.198;9.902;2023-01-19T12:20:54;72.56;49.76;89.02;;
52872;Laerm;40124;52.198;9.902;2023-01-19T12:23:41;72.30;48.90;86.77;;
52872;Laerm;40124;52.198;9.902;2023-01-19T12:28:44;72.60;44.83;85.45;;
52872;Laerm;40124;52.198;9.902;2023-01-19T12:31:18;70.92;44.83;84.87;;
52872;Laerm;40124;52.198;9.902;2023-01-19T12:33:44;71.31;47.00;82.78;;
52872;Laerm;40124;52.198;9.902;2023-01-19T12:44:50;74.93;45.77;92.86;;
52872;Laerm;40124;52.198;9.902;2023-01-19T12:47:28;74.20;47.57;88.84;;
52872;Laerm;40124;52.198;9.902;2023-01-19T12:49:54;74.96;57.75;87.56;;
52872;Laerm;40124;52.198;9.902;2023-01-19T12:52:35;77.33;55.62;90.53;;
52872;Laerm;40124;52.198;9.902;2023-01-19T12:58:24;70.92;43.58;83.16;;
52872;Laerm;40124;52.198;9.902;2023-01-19T13:01:17;71.54;45.27;88.18;;
52872;Laerm;40124;52.198;9.902;2023-01-19T13:13:17;75.12;44.51;92.78;;
52872;Laerm;40124;52.198;9.902;2023-01-19T13:15:43;72.33;45.54;82.33;;
52872;Laerm;40124;52.198;9.902;2023-01-19T13:18:11;71.81;44.31;86.26;;
52872;Laerm;40124;52.198;9.902;2023-01-19T13:24:04;74.77;49.96;89.39;;
52872;Laerm;40124;52.198;9.902;2023-01-19T13:29:33;75.41;47.95;90.04;;
52872;Laerm;40124;52.198;9.902;2023-01-19T13:31:59;75.95;53.18;91.25;;
52872;Laerm;40124;52.198;9.902;2023-01-19T13:40:56;73.28;46.80;85.72;;
52872;Laerm;40124;52.198;9.902;2023-01-19T13:43:25;75.91;49.56;88.81;;
52872;Laerm;40124;52.198;9.902;2023-01-19T13:49:43;73.55;56.26;85.94;;
52872;Laerm;40124;52.198;9.902;2023-01-19T14:00:43;72.28;52.62;86.92;;
52872;Laerm;40124;52.198;9.902;2023-01-19T14:03:19;72.15;44.51;87.73;;
52872;Laerm;40124;52.198;9.902;2023-01-19T14:12:13;72.53;50.00;86.39;;
52872;Laerm;40124;52.198;9.902;2023-01-19T14:18:05;72.61;49.03;87.58;;
52872;Laerm;40124;52.198;9.902;2023-01-19T14:20:29;71.08;49.80;82.65;;
52872;Laerm;40124;52.198;9.902;2023-01-19T14:22:56;73.52;55.46;84.33;;
52872;Laerm;40124;52.198;9.902;2023-01-19T14:25:25;71.56;55.97;81.95;;
52872;Laerm;40124;52.198;9.902;2023-01-19T14:27:51;72.00;43.19;87.33;;
52872;Laerm;40124;52.198;9.902;2023-01-19T14:39:29;73.95;46.84;89.02;;
52872;Laerm;40124;52.198;9.902;2023-01-19T14:41:56;71.18;43.90;81.79;;
52872;Laerm;40124;52.198;9.902;2023-01-19T14:44:40;72.59;45.04;87.50;;
52872;Laerm;40124;52.198;9.902;2023-01-19T14:53:26;71.86;48.39;82.54;;
52872;Laerm;40124;52.198;9.902;2023-01-19T14:58:43;71.70;51.95;82.26;;
52872;Laerm;40124;52.198;9.902;2023-01-19T15:01:09;73.34;47.83;87.82;;
52872;Laerm;40124;52.198;9.902;2023-01-19T15:03:34;72.23;48.31;85.18;;
52872;Laerm;40124;52.198;9.902;2023-01-19T15:06:00;70.87;50.46;80.75;;
52872;Laerm;40124;52.198;9.902;2023-01-19T15:08:32;72.71;51.37;85.31;;
52872;Laerm;40124;52.198;9.902;2023-01-19T15:10:59;70.82;44.39;80.04;;
52872;Laerm;40124;52.198;9.902;2023-01-19T15:13:25;69.56;44.62;81.06;;
52872;Laerm;40124;52.198;9.902;2023-01-19T15:19:10;72.26;45.97;88.01;;
52872;Laerm;40124;52.198;9.902;2023-01-19T15:24:57;70.28;46.15;81.74;;
52872;Laerm;40124;52.198;9.902;2023-01-19T15:27:24;70.99;46.84;81.54;;
52872;Laerm;40124;52.198;9.902;2023-01-19T15:48:17;71.31;48.69;83.39;;
52872;Laerm;40124;52.198;9.902;2023-01-19T15:50:44;71.21;50.91;84.35;;
52872;Laerm;40124;52.198;9.902;2023-01-19T15:53:18;71.50;52.07;82.34;;
52872;Laerm;40124;52.198;9.902;2023-01-19T16:05:42;71.04;48.94;84.49;;
52872;Laerm;40124;52.198;9.902;2023-01-19T16:08:19;71.25;52.05;87.69;;
52872;Laerm;40124;52.198;9.902;2023-01-19T16:16:33;71.61;47.55;85.33;;
52872;Laerm;40124;52.198;9.902;2023-01-19T16:25:02;71.54;47.28;88.18;;
52872;Laerm;40124;52.198;9.902;2023-01-19T16:27:37;71.26;43.94;81.73;;
52872;Laerm;40124;52.198;9.902;2023-01-19T16:30:03;70.62;55.10;79.83;;
52872;Laerm;40124;52.198;9.902;2023-01-19T16:32:29;71.07;48.12;81.22;;
52872;Laerm;40124;52.198;9.902;2023-01-19T16:41:08;73.78;47.83;87.21;;
52872;Laerm;40124;52.198;9.902;2023-01-19T16:43:36;68.91;44.58;81.48;;
52872;Laerm;40124;52.198;9.902;2023-01-19T16:46:01;72.87;51.69;88.40;;
52872;Laerm;40124;52.198;9.902;2023-01-19T16:48:31;69.92;43.99;80.44;;
52872;Laerm;40124;52.198;9.902;2023-01-19T16:51:06;69.03;42.93;80.88;;
52872;Laerm;40124;52.198;9.902;2023-01-19T16:53:32;70.45;54.90;79.84;;
52872;Laerm;40124;52.198;9.902;2023-01-19T16:56:06;69.21;45.94;80.32;;
52872;Laerm;40124;52.198;9.902;2023-01-19T16:58:35;71.27;51.64;81.00;;
52872;Laerm;40124;52.198;9.902;2023-01-19T17:01:06;70.96;49.63;81.47;;
52872;Laerm;40124;52.198;9.902;2023-01-19T17:03:31;71.31;46.50;80.58;;
52872;Laerm;40124;52.198;9.902;2023-01-19T17:05:57;71.52;49.46;85.31;;
52872;Laerm;40124;52.198;9.902;2023-01-19T17:08:33;70.36;48.45;81.54;;
52872;Laerm;40124;52.198;9.902;2023-01-19T17:10:58;70.57;45.20;81.98;;
52872;Laerm;40124;52.198;9.902;2023-01-19T17:13:45;69.15;53.93;79.34;;
52872;Laerm;40124;52.198;9.902;2023-01-19T17:16:11;69.51;47.44;82.05;;
52872;Laerm;40124;52.198;9.902;2023-01-19T17:18:36;69.13;44.31;82.92;;
52872;Laerm;40124;52.198;9.902;2023-01-19T17:21:06;72.00;48.90;98.05;;
52872;Laerm;40124;52.198;9.902;2023-01-19T17:23:32;70.53;44.23;81.33;;
52872;Laerm;40124;52.198;9.902;2023-01-19T17:26:18;68.85;45.45;81.06;;
52872;Laerm;40124;52.198;9.902;2023-01-19T17:32:05;71.48;50.15;88.34;;
52872;Laerm;40124;52.198;9.902;2023-01-19T17:34:31;70.26;49.44;85.06;;
52872;Laerm;40124;52.198;9.902;2023-01-19T17:36:56;70.02;47.06;82.07;;
52872;Laerm;40124;52.198;9.902;2023-01-19T17:39:27;72.81;47.68;88.42;;
52872;Laerm;40124;52.198;9.902;2023-01-19T17:41:52;72.66;44.97;86.05;;
52872;Laerm;40124;52.198;9.902;2023-01-19T17:44:17;70.46;42.41;81.21;;
52872;Laerm;40124;52.198;9.902;2023-01-19T17:46:43;71.40;47.26;84.31;;
52872;Laerm;40124;52.198;9.902;2023-01-19T17:55:10;68.88;42.22;82.46;;
52872;Laerm;40124;52.198;9.902;2023-01-19T17:57:51;68.76;45.45;79.90;;
52872;Laerm;40124;52.198;9.902;2023-01-19T18:00:41;71.10;45.04;83.62;;
52872;Laerm;40124;52.198;9.902;2023-01-19T18:03:17;69.04;48.81;81.33;;
52872;Laerm;40124;52.198;9.902;2023-01-19T18:11:57;66.73;41.89;81.08;;
52872;Laerm;40124;52.198;9.902;2023-01-19T18:14:29;70.48;42.88;83.63;;
52872;Laerm;40124;52.198;9.902;2023-01-19T18:16:54;70.28;47.74;80.78;;
52872;Laerm;40124;52.198;9.902;2023-01-19T18:19:19;68.94;44.83;81.54;;
52872;Laerm;40124;52.198;9.902;2023-01-19T18:24:22;69.55;47.48;80.65;;
52872;Laerm;40124;52.198;9.902;2023-01-19T18:27:08;68.92;41.68;80.30;;
52872;Laerm;40124;52.198;9.902;2023-01-19T18:29:34;70.42;41.96;80.99;;
52872;Laerm;40124;52.198;9.902;2023-01-19T18:31:59;70.46;43.44;86.02;;
52872;Laerm;40124;52.198;9.902;2023-01-19T18:34:27;69.73;43.86;81.16;;
52872;Laerm;40124;52.198;9.902;2023-01-19T18:36:52;69.91;47.30;83.06;;
52872;Laerm;40124;52.198;9.902;2023-01-19T18:42:42;62.82;41.46;78.22;;
52872;Laerm;40124;52.198;9.902;2023-01-19T18:45:07;66.94;41.14;78.70;;
52872;Laerm;40124;52.198;9.902;2023-01-19T18:53:48;65.63;42.53;79.54;;
52872;Laerm;40124;52.198;9.902;2023-01-19T19:05:39;67.29;40.62;80.65;;
52872;Laerm;40124;52.198;9.902;2023-01-19T19:11:40;68.32;39.34;83.41;;
52872;Laerm;40124;52.198;9.902;2023-01-19T19:14:05;68.61;41.46;84.97;;
52872;Laerm;40124;52.198;9.902;2023-01-19T19:16:30;68.60;42.29;83.29;;
52872;Laerm;40124;52.198;9.902;2023-01-19T19:18:56;67.50;41.46;82.91;;
52872;Laerm;40124;52.198;9.902;2023-01-19T19:21:23;67.44;40.43;79.98;;
52872;Laerm;40124;52.198;9.902;2023-01-19T19:23:53;69.96;46.89;82.13;;
52872;Laerm;40124;52.198;9.902;2023-01-19T19:26:18;69.89;45.30;86.05;;
52872;Laerm;40124;52.198;9.902;2023-01-19T19:28:46;64.49;40.13;79.58;;
52872;Laerm;40124;52.198;9.902;2023-01-19T19:31:15;66.77;41.82;83.93;;
52872;Laerm;40124;52.198;9.902;2023-01-19T19:33:42;66.78;40.33;83.75;;
52872;Laerm;40124;52.198;9.902;2023-01-19T19:39:11;66.63;40.71;80.86;;
52872;Laerm;40124;52.198;9.902;2023-01-19T19:41:36;61.85;38.81;77.88;;
52872;Laerm;40124;52.198;9.902;2023-01-19T19:44:02;67.48;40.62;79.86;;
52872;Laerm;40124;52.198;9.902;2023-01-19T19:46:28;66.62;40.13;81.59;;
52872;Laerm;40124;52.198;9.902;2023-01-19T19:52:09;70.66;40.08;89.16;;
52872;Laerm;40124;52.198;9.902;2023-01-19T19:54:37;66.33;43.14;79.67;;
52872;Laerm;40124;52.198;9.902;2023-01-19T19:57:04;68.22;42.29;82.43;;
52872;Laerm;40124;52.198;9.902;2023-01-19T19:59:29;66.69;40.62;81.68;;
52872;Laerm;40124;52.198;9.902;2023-01-19T20:01:55;65.33;41.38;79.98;;
52872;Laerm;40124;52.198;9.902;2023-01-19T20:04:20;66.08;40.13;80.75;;
52872;Laerm;40124;52.198;9.902;2023-01-19T20:06:46;63.05;38.52;78.62;;
52872;Laerm;40124;52.198;9.902;2023-01-19T20:09:12;61.34;40.43;79.67;;
52872;Laerm;40124;52.198;9.902;2023-01-19T20:11:40;63.55;40.53;81.70;;
52872;Laerm;40124;52.198;9.902;2023-01-19T20:14:26;60.98;40.03;77.96;;
52872;Laerm;40124;52.198;9.902;2023-01-19T20:16:51;63.87;39.21;80.57;;
52872;Laerm;40124;52.198;9.902;2023-01-19T20:21:56;70.69;41.22;86.98;;
52872;Laerm;40124;52.198;9.902;2023-01-19T20:24:22;69.55;41.61;87.97;;
52872;Laerm;40124;52.198;9.902;2023-01-19T20:33:13;67.06;40.62;80.74;;
52872;Laerm;40124;52.198;9.902;2023-01-19T20:35:59;66.88;39.08;81.89;;
52872;Laerm;40124;52.198;9.902;2023-01-19T20:38:25;65.99;38.37;81.26;;
52872;Laerm;40124;52.198;9.902;2023-01-19T20:40:52;64.64;39.81;87.48;;
52872;Laerm;40124;52.198;9.902;2023-01-19T20:43:17;64.65;38.95;80.95;;
52872;Laerm;40124;52.198;9.902;2023-01-19T20:46:00;66.90;40.03;81.34;;
52872;Laerm;40124;52.198;9.902;2023-01-19T20:48:26;64.55;41.53;78.62;;
52872;Laerm;40124;52.198;9.902;2023-01-19T20:53:35;65.08;39.08;82.73;;
52872;Laerm;40124;52.198;9.902;2023-01-19T20:56:12;63.25;39.21;77.61;;
52872;Laerm;40124;52.198;9.902;2023-01-19T21:02:00;62.80;38.67;81.23;;
52872;Laerm;40124;52.198;9.902;2023-01-19T21:07:39;67.38;39.58;82.47;;
52872;Laerm;40124;52.198;9.902;2023-01-19T21:10:04;65.84;40.98;80.97;;
52872;Laerm;40124;52.198;9.902;2023-01-19T21:15:52;67.69;51.83;80.28;;